Time;durP1;ratioP1;P1;durP2;ratioP2;P2;SDS_P1;SDS_P2;PMS_P1;PMS_P2;Temp;Humidity;BMP_temperature;BMP_pressure;BME280_temperature;BME280_humidity;BME280_pressure;Samples;Min_cycle;Max_cycle;Signal;HPM_P1;HPM_P2
2023/04/20 00:00:58;;;;;;;15.02;3.33;;;6.90;99.90;;;;;;5114396;28;20420;-62
2023/04/20 00:03:26;;;;;;;10.77;3.20;;;6.80;99.90;;;;;;5114301;28;20074;-62
2023/04/20 00:05:53;;;;;;;12.52;3.08;;;6.80;99.90;;;;;;5114290;28;20036;-62
2023/04/20 00:08:20;;;;;;;10.20;3.22;;;6.80;99.90;;;;;;5114194;28;20456;-62
2023/04/20 00:10:47;;;;;;;16.25;3.75;;;6.70;99.90;;;;;;5114518;28;20069;-62
2023/04/20 00:13:13;;;;;;;14.45;3.45;;;6.70;99.90;;;;;;5114299;28;20123;-61
2023/04/20 00:15:40;;;;;;;14.18;3.05;;;6.60;99.90;;;;;;5114329;28;20048;-62
2023/04/20 00:18:07;;;;;;;7.35;2.95;;;6.60;99.90;;;;;;5114501;28;20386;-62
2023/04/20 00:20:34;;;;;;;9.10;3.00;;;6.60;99.90;;;;;;5113943;28;20093;-62
2023/04/20 00:23:00;;;;;;;13.75;3.20;;;6.50;99.90;;;;;;5114376;28;20035;-63
2023/04/20 00:25:28;;;;;;;6.35;2.95;;;6.50;99.90;;;;;;5113928;28;20044;-63
2023/04/20 00:27:55;;;;;;;12.68;3.40;;;6.50;99.90;;;;;;5113232;28;20060;-62
2023/04/20 00:30:22;;;;;;;10.93;3.08;;;6.50;99.90;;;;;;5113230;28;20456;-62
2023/04/20 00:32:48;;;;;;;13.15;3.00;;;6.50;99.90;;;;;;5112542;28;20075;-62
2023/04/20 00:35:15;;;;;;;13.77;3.13;;;6.50;99.90;;;;;;5095655;28;20527;-63
2023/04/20 00:37:43;;;;;;;12.60;3.10;;;6.40;99.90;;;;;;5113788;28;20070;-63
2023/04/20 00:40:10;;;;;;;8.98;3.10;;;6.40;99.90;;;;;;5112526;28;20047;-62
2023/04/20 00:42:36;;;;;;;9.88;3.40;;;6.40;99.90;;;;;;5113850;28;20036;-61
2023/04/20 00:45:03;;;;;;;7.80;3.05;;;6.40;99.90;;;;;;5113803;28;20531;-63
2023/04/20 00:47:30;;;;;;;13.55;3.70;;;6.40;99.90;;;;;;5114401;28;20385;-63
2023/04/20 00:49:57;;;;;;;16.52;3.53;;;6.40;99.90;;;;;;5113563;28;20048;-62
2023/04/20 00:52:23;;;;;;;13.85;4.25;;;6.40;99.90;;;;;;5113658;28;20123;-63
2023/04/20 00:54:50;;;;;;;11.55;3.28;;;6.40;99.90;;;;;;5112576;28;20052;-62
2023/04/20 00:57:17;;;;;;;8.75;3.40;;;6.30;99.90;;;;;;5113856;28;20081;-62
2023/04/20 00:59:44;;;;;;;10.13;3.47;;;6.30;99.90;;;;;;5113903;28;20044;-62
2023/04/20 01:02:10;;;;;;;11.27;3.88;;;6.30;99.90;;;;;;5114057;28;20379;-63
2023/04/20 01:04:40;;;;;;;13.90;4.03;;;6.20;99.90;;;;;;5112563;28;20122;-61
2023/04/20 01:07:07;;;;;;;14.38;3.67;;;6.30;99.90;;;;;;5112714;28;20046;-61
2023/04/20 01:09:33;;;;;;;10.50;3.40;;;6.20;99.90;;;;;;5113821;28;20533;-61
2023/04/20 01:12:01;;;;;;;11.30;4.00;;;6.30;99.90;;;;;;5113999;28;20059;-62
2023/04/20 01:14:28;;;;;;;13.15;3.85;;;6.20;99.90;;;;;;5113635;28;20417;-61
2023/04/20 01:16:55;;;;;;;14.80;4.15;;;6.20;99.90;;;;;;5112663;28;20096;-61
2023/04/20 01:19:22;;;;;;;19.83;4.95;;;6.20;99.90;;;;;;5113869;28;20039;-61
2023/04/20 01:21:48;;;;;;;12.25;4.20;;;6.20;99.90;;;;;;5113961;28;20485;-61
2023/04/20 01:24:15;;;;;;;13.65;4.00;;;6.20;99.90;;;;;;5113945;28;20043;-60
2023/04/20 01:26:42;;;;;;;13.82;3.72;;;6.20;99.90;;;;;;5113930;28;20059;-62
2023/04/20 01:29:09;;;;;;;15.48;4.45;;;6.10;99.90;;;;;;5113267;28;20097;-61
2023/04/20 01:31:35;;;;;;;15.25;3.83;;;6.20;99.90;;;;;;5113080;28;20078;-60
2023/04/20 01:34:02;;;;;;;11.75;4.53;;;6.20;99.90;;;;;;5113788;28;20044;-62
2023/04/20 01:36:29;;;;;;;15.73;4.78;;;6.10;99.90;;;;;;5113377;28;20050;-60
2023/04/20 01:38:56;;;;;;;16.58;4.28;;;6.10;99.90;;;;;;5114826;28;20051;-60
2023/04/20 01:41:23;;;;;;;16.50;4.65;;;6.10;99.90;;;;;;5115858;28;20097;-62
2023/04/20 01:43:50;;;;;;;12.90;4.68;;;6.10;99.90;;;;;;5116937;28;20462;-62
2023/04/20 01:46:17;;;;;;;15.05;5.00;;;6.10;99.90;;;;;;5117256;28;20071;-61
2023/04/20 01:48:45;;;;;;;18.52;5.75;;;6.10;99.90;;;;;;5115441;28;20440;-61
2023/04/20 01:51:13;;;;;;;15.80;5.15;;;6.10;99.90;;;;;;5115760;28;20043;-62
2023/04/20 01:53:40;;;;;;;16.00;5.10;;;6.10;99.90;;;;;;5117152;28;20088;-61
2023/04/20 01:56:07;;;;;;;16.85;4.90;;;6.10;99.90;;;;;;5115485;28;20104;-61
2023/04/20 01:58:34;;;;;;;15.80;5.40;;;6.10;99.90;;;;;;5115500;28;20071;-62
2023/04/20 02:01:01;;;;;;;16.27;5.18;;;6.00;99.90;;;;;;5115641;28;20046;-62
2023/04/20 02:03:28;;;;;;;12.80;5.43;;;6.00;99.90;;;;;;5116983;28;20051;-61
2023/04/20 02:05:55;;;;;;;14.75;4.60;;;6.00;99.90;;;;;;5116709;28;20071;-61
2023/04/20 02:08:25;;;;;;;12.90;4.80;;;6.00;99.90;;;;;;5116689;28;20039;-62
2023/04/20 02:10:52;;;;;;;15.25;5.55;;;6.00;99.90;;;;;;5116353;28;20367;-60
2023/04/20 02:13:18;;;;;;;18.10;6.07;;;6.00;99.90;;;;;;5116369;28;20049;-61
2023/04/20 02:15:45;;;;;;;11.82;5.55;;;6.00;99.90;;;;;;5115201;28;20047;-61
2023/04/20 02:18:14;;;;;;;18.70;5.13;;;6.00;99.90;;;;;;5114941;28;20044;-61
2023/04/20 02:20:41;;;;;;;13.00;5.10;;;5.90;99.90;;;;;;5116187;28;20040;-62
2023/04/20 02:23:07;;;;;;;18.85;5.65;;;5.90;99.90;;;;;;5115068;28;20461;-61
2023/04/20 02:25:34;;;;;;;17.90;5.93;;;5.90;99.90;;;;;;5116349;27;20040;-61
2023/04/20 02:28:02;;;;;;;14.10;5.35;;;5.90;99.90;;;;;;5116658;28;20416;-61
2023/04/20 02:30:29;;;;;;;16.45;5.75;;;5.90;99.90;;;;;;5114888;28;20044;-61
2023/04/20 02:32:56;;;;;;;17.60;6.30;;;5.90;99.90;;;;;;5116321;28;20040;-62
2023/04/20 02:35:23;;;;;;;16.98;6.07;;;5.90;99.90;;;;;;5116167;28;20057;-61
2023/04/20 02:37:50;;;;;;;19.15;6.28;;;5.90;99.90;;;;;;5114500;28;20056;-62
2023/04/20 02:40:16;;;;;;;18.83;5.75;;;5.90;99.90;;;;;;5115862;28;20390;-61
2023/04/20 02:42:43;;;;;;;15.57;6.68;;;5.90;99.90;;;;;;5116197;28;20036;-62
2023/04/20 02:45:10;;;;;;;19.45;7.13;;;5.90;99.90;;;;;;5115008;28;20039;-62
2023/04/20 02:47:38;;;;;;;17.10;6.03;;;5.90;99.90;;;;;;5115428;28;20035;-61
2023/04/20 02:50:06;;;;;;;18.13;6.40;;;5.90;99.90;;;;;;5113728;28;20046;-62
2023/04/20 02:52:44;;;;;;;17.90;6.60;;;5.80;99.90;;;;;;5114480;28;20058;-61
2023/04/20 02:55:10;;;;;;;21.35;6.95;;;5.80;99.90;;;;;;5114060;28;20130;-62
2023/04/20 02:57:39;;;;;;;21.70;7.03;;;5.80;99.90;;;;;;5114743;28;20040;-62
2023/04/20 03:00:08;;;;;;;16.77;6.72;;;5.80;99.90;;;;;;5114060;28;20138;-62
2023/04/20 03:02:50;;;;;;;17.02;7.50;;;5.80;99.90;;;;;;5114529;28;20428;-61
2023/04/20 03:05:18;;;;;;;16.40;6.90;;;5.80;99.90;;;;;;5114058;28;20053;-62
2023/04/20 03:07:44;;;;;;;16.80;6.65;;;5.80;99.90;;;;;;5113982;28;20131;-62
2023/04/20 03:10:11;;;;;;;18.95;7.45;;;5.80;99.90;;;;;;5114066;28;20418;-61
2023/04/20 03:12:48;;;;;;;22.52;7.35;;;5.80;99.90;;;;;;5113978;28;20487;-61
2023/04/20 03:15:33;;;;;;;17.48;6.43;;;5.80;99.90;;;;;;5115496;28;20063;-62
2023/04/20 03:18:05;;;;;;;27.35;7.03;;;5.80;99.90;;;;;;5113948;28;20163;-60
2023/04/20 03:20:32;;;;;;;21.75;7.20;;;5.80;99.90;;;;;;5113773;28;20048;-61
2023/04/20 03:22:59;;;;;;;17.65;7.75;;;5.80;99.90;;;;;;5114914;27;20044;-62
2023/04/20 03:25:26;;;;;;;19.13;7.22;;;5.80;99.90;;;;;;5113721;28;20043;-62
2023/04/20 03:27:56;;;;;;;17.35;7.78;;;5.70;99.90;;;;;;5115318;27;20035;-61
2023/04/20 03:30:23;;;;;;;22.20;7.72;;;5.80;99.90;;;;;;5113474;28;20406;-62
2023/04/20 03:32:56;;;;;;;17.42;8.15;;;5.70;99.90;;;;;;5113509;28;20036;-61
2023/04/20 03:35:23;;;;;;;20.48;7.28;;;5.70;99.90;;;;;;5115129;28;20039;-61
2023/04/20 03:37:50;;;;;;;16.27;7.05;;;5.70;99.90;;;;;;5113826;28;20039;-62
2023/04/20 03:40:17;;;;;;;20.77;7.30;;;5.70;99.90;;;;;;5113419;28;20048;-61
2023/04/20 03:42:44;;;;;;;17.42;7.07;;;5.70;99.90;;;;;;5114902;28;20039;-60
2023/04/20 03:45:10;;;;;;;22.42;8.45;;;5.60;99.90;;;;;;5096214;28;20440;-62
2023/04/20 03:47:37;;;;;;;22.40;7.53;;;5.70;99.90;;;;;;5115065;28;20489;-61
2023/04/20 03:50:04;;;;;;;26.05;8.63;;;5.60;99.90;;;;;;5114137;28;20081;-62
2023/04/20 03:52:31;;;;;;;21.73;8.13;;;5.60;99.90;;;;;;5114270;28;20055;-61
2023/04/20 03:55:02;;;;;;;16.27;7.47;;;5.60;99.90;;;;;;5112848;28;20108;-61
2023/04/20 03:57:29;;;;;;;15.43;7.65;;;5.60;99.90;;;;;;5113250;28;20096;-62
2023/04/20 03:59:56;;;;;;;22.83;7.50;;;5.60;99.90;;;;;;5113471;28;20040;-62
2023/04/20 04:02:26;;;;;;;17.15;7.38;;;5.60;99.90;;;;;;5113222;28;20155;-61
2023/04/20 04:04:54;;;;;;;20.65;7.38;;;5.60;99.90;;;;;;5112961;28;20060;-61
2023/04/20 04:07:21;;;;;;;23.73;8.45;;;5.60;99.90;;;;;;5112785;28;20050;-62
2023/04/20 04:09:49;;;;;;;19.40;7.68;;;5.60;99.90;;;;;;5112788;28;20217;-62
2023/04/20 04:12:16;;;;;;;18.20;7.15;;;5.60;99.90;;;;;;5112989;28;20074;-61
2023/04/20 04:14:44;;;;;;;16.65;7.40;;;5.50;99.90;;;;;;5112626;28;20055;-62
2023/04/20 04:17:14;;;;;;;24.77;8.27;;;5.60;99.90;;;;;;5113440;28;20044;-61
2023/04/20 04:19:42;;;;;;;18.38;7.80;;;5.50;99.90;;;;;;5112767;28;20051;-61
2023/04/20 04:22:09;;;;;;;21.45;7.93;;;5.50;99.90;;;;;;5112868;28;20422;-62
2023/04/20 04:24:43;;;;;;;14.82;7.30;;;5.50;99.90;;;;;;5112717;28;20096;-61
2023/04/20 04:27:14;;;;;;;22.88;8.27;;;5.50;99.90;;;;;;5112957;28;20047;-61
2023/04/20 04:29:50;;;;;;;17.08;8.23;;;5.50;99.90;;;;;;5097445;28;20108;-60
2023/04/20 04:32:19;;;;;;;23.70;9.15;;;5.50;99.90;;;;;;5112981;28;20130;-62
2023/04/20 04:34:47;;;;;;;23.30;7.55;;;5.40;99.90;;;;;;5113765;28;20455;-62
2023/04/20 04:37:14;;;;;;;19.20;7.78;;;5.40;99.90;;;;;;5112590;28;20071;-62
2023/04/20 04:39:46;;;;;;;22.13;8.57;;;5.40;99.90;;;;;;5112234;28;20039;-62
2023/04/20 04:42:21;;;;;;;19.88;7.72;;;5.40;99.90;;;;;;5112626;28;20051;-61
2023/04/20 04:44:50;;;;;;;25.70;8.18;;;5.40;99.90;;;;;;5112576;28;20081;-62
2023/04/20 04:47:24;;;;;;;19.50;8.30;;;5.40;99.90;;;;;;5112964;28;20127;-62
2023/04/20 04:49:51;;;;;;;17.88;8.18;;;5.40;99.90;;;;;;5112384;28;20040;-61
2023/04/20 04:52:18;;;;;;;20.05;8.27;;;5.40;99.90;;;;;;5113474;28;20081;-62
2023/04/20 04:54:45;;;;;;;17.35;8.25;;;5.40;99.90;;;;;;5113486;28;20105;-61
2023/04/20 04:57:11;;;;;;;17.45;8.27;;;5.30;99.90;;;;;;5113940;28;20127;-61
2023/04/20 04:59:38;;;;;;;19.85;8.00;;;5.30;99.90;;;;;;5113524;28;20048;-61
2023/04/20 05:02:05;;;;;;;17.50;7.88;;;5.30;99.90;;;;;;5114207;28;20039;-62
2023/04/20 05:04:32;;;;;;;21.63;9.13;;;5.30;99.90;;;;;;5114228;28;20036;-62
2023/04/20 05:06:59;;;;;;;24.70;9.70;;;5.30;99.90;;;;;;5114181;28;20127;-61
2023/04/20 05:09:32;;;;;;;21.48;8.00;;;5.30;99.90;;;;;;5112169;28;20040;-61
2023/04/20 05:11:59;;;;;;;17.35;7.80;;;5.30;99.90;;;;;;5112293;28;20039;-62
2023/04/20 05:14:26;;;;;;;18.65;8.30;;;5.30;99.90;;;;;;5116182;28;20073;-62
2023/04/20 05:16:53;;;;;;;16.40;7.20;;;5.30;99.90;;;;;;5117604;28;20036;-61
2023/04/20 05:19:19;;;;;;;19.27;8.73;;;5.30;99.90;;;;;;5117254;28;20522;-62
2023/04/20 05:21:46;;;;;;;17.65;7.80;;;5.30;99.90;;;;;;5117378;28;20063;-61
2023/04/20 05:24:13;;;;;;;20.85;7.95;;;5.30;99.90;;;;;;5117434;28;20078;-62
2023/04/20 05:26:40;;;;;;;21.45;7.82;;;5.30;99.90;;;;;;5117751;28;20039;-62
2023/04/20 05:29:07;;;;;;;17.73;7.95;;;5.30;99.90;;;;;;5117193;27;20036;-61
2023/04/20 05:31:33;;;;;;;17.77;7.50;;;5.40;99.90;;;;;;5117189;28;20040;-62
2023/04/20 05:34:01;;;;;;;17.23;7.40;;;5.30;99.90;;;;;;5117219;28;20536;-64
2023/04/20 05:36:28;;;;;;;16.80;8.13;;;5.40;99.90;;;;;;5117575;28;20382;-63
2023/04/20 05:38:55;;;;;;;16.27;8.38;;;5.40;99.90;;;;;;5117079;28;20067;-61
2023/04/20 05:41:26;;;;;;;13.88;7.43;;;5.40;99.90;;;;;;5117170;28;20046;-62
2023/04/20 05:43:53;;;;;;;16.92;8.10;;;5.40;99.90;;;;;;5117087;28;20071;-62
2023/04/20 05:46:20;;;;;;;19.40;7.53;;;5.40;99.90;;;;;;5117381;27;20060;-62
2023/04/20 05:48:47;;;;;;;16.40;8.32;;;5.50;99.90;;;;;;5116965;28;20043;-63
2023/04/20 05:51:14;;;;;;;13.45;7.65;;;5.50;99.90;;;;;;5116996;27;20126;-62
2023/04/20 05:53:40;;;;;;;15.63;8.00;;;5.50;99.90;;;;;;5117075;28;20040;-62
2023/04/20 05:56:07;;;;;;;22.52;8.40;;;5.50;99.90;;;;;;5116745;28;20055;-61
2023/04/20 05:58:36;;;;;;;22.08;8.43;;;5.60;99.90;;;;;;5116647;28;20085;-61
2023/04/20 06:01:03;;;;;;;17.52;7.50;;;5.60;99.90;;;;;;5116566;28;20111;-62
2023/04/20 06:03:30;;;;;;;16.70;7.93;;;5.60;99.90;;;;;;5117657;28;20466;-62
2023/04/20 06:05:57;;;;;;;14.38;7.65;;;5.60;99.90;;;;;;5116442;28;20043;-62
2023/04/20 06:08:23;;;;;;;19.52;7.70;;;5.70;99.90;;;;;;5116441;28;20493;-62
2023/04/20 06:10:50;;;;;;;20.88;7.07;;;5.70;99.90;;;;;;5116432;28;20131;-62
2023/04/20 06:13:17;;;;;;;19.98;7.50;;;5.70;99.90;;;;;;5117038;28;20054;-61
2023/04/20 06:15:44;;;;;;;16.92;7.35;;;5.80;99.90;;;;;;5116212;28;20046;-62
2023/04/20 06:18:10;;;;;;;16.98;6.70;;;5.80;99.90;;;;;;5116398;28;20040;-62
2023/04/20 06:20:38;;;;;;;17.55;7.55;;;5.80;99.90;;;;;;5116060;28;20075;-61
2023/04/20 06:23:05;;;;;;;15.05;6.50;;;5.90;99.90;;;;;;5116670;28;20044;-62
2023/04/20 06:25:31;;;;;;;20.50;8.15;;;6.00;99.90;;;;;;5115024;28;20093;-62
2023/04/20 06:27:58;;;;;;;15.20;6.40;;;6.00;99.90;;;;;;5115015;28;20044;-62
2023/04/20 06:30:25;;;;;;;14.40;6.63;;;6.10;99.90;;;;;;5116075;27;20074;-61
2023/04/20 06:32:52;;;;;;;17.40;6.90;;;6.10;99.90;;;;;;5116690;28;20433;-61
2023/04/20 06:35:18;;;;;;;18.85;7.53;;;6.10;99.90;;;;;;5114698;28;20051;-61
2023/04/20 06:37:45;;;;;;;17.10;6.53;;;6.20;99.90;;;;;;5115711;28;20047;-62
2023/04/20 06:40:12;;;;;;;20.58;6.30;;;6.30;99.90;;;;;;5115795;28;20118;-61
2023/04/20 06:42:41;;;;;;;17.05;6.25;;;6.30;99.90;;;;;;5116103;28;20051;-62
2023/04/20 06:45:08;;;;;;;16.38;6.35;;;6.40;99.90;;;;;;5116225;28;20467;-62
2023/04/20 06:47:35;;;;;;;21.48;7.13;;;6.40;99.90;;;;;;5116019;28;20440;-63
2023/04/20 06:50:03;;;;;;;16.50;7.10;;;6.50;99.90;;;;;;5115469;28;20070;-61
2023/04/20 06:52:30;;;;;;;13.60;6.30;;;6.50;99.90;;;;;;5116166;28;20043;-62
2023/04/20 06:54:57;;;;;;;13.13;6.35;;;6.60;99.90;;;;;;5115679;28;20086;-62
2023/04/20 06:57:24;;;;;;;15.60;7.35;;;6.60;99.90;;;;;;5115985;28;20408;-62
2023/04/20 06:59:50;;;;;;;12.43;6.35;;;6.70;99.90;;;;;;5115572;28;20046;-61
2023/04/20 07:02:17;;;;;;;17.63;6.88;;;6.70;99.90;;;;;;5115291;28;20364;-60
2023/04/20 07:04:44;;;;;;;16.08;6.00;;;6.80;99.90;;;;;;5114892;28;20115;-61
2023/04/20 07:07:11;;;;;;;13.30;6.63;;;6.80;99.90;;;;;;5114837;27;20096;-61
2023/04/20 07:09:38;;;;;;;15.57;6.05;;;6.90;99.90;;;;;;5114844;28;20118;-62
2023/04/20 07:12:05;;;;;;;18.42;6.03;;;7.00;99.90;;;;;;5114662;28;20060;-61
2023/04/20 07:14:31;;;;;;;13.55;6.20;;;7.00;99.90;;;;;;5114651;28;20055;-62
2023/04/20 07:16:58;;;;;;;12.23;5.38;;;7.10;99.90;;;;;;5114652;28;20493;-62
2023/04/20 07:19:25;;;;;;;10.90;4.88;;;7.20;99.90;;;;;;5115230;28;20063;-62
2023/04/20 07:21:51;;;;;;;14.55;5.30;;;7.20;99.90;;;;;;5115390;28;20044;-62
2023/04/20 07:24:18;;;;;;;12.15;4.97;;;7.30;99.90;;;;;;5114843;28;20043;-63
2023/04/20 07:26:45;;;;;;;13.90;5.75;;;7.40;99.90;;;;;;5113799;28;20039;-62
2023/04/20 07:29:12;;;;;;;14.25;5.35;;;7.40;99.90;;;;;;5114079;28;20053;-61
2023/04/20 07:31:38;;;;;;;12.18;5.45;;;7.50;99.90;;;;;;5113780;28;20039;-61
2023/04/20 07:34:06;;;;;;;17.60;4.63;;;7.60;99.90;;;;;;5113760;28;20437;-62
2023/04/20 07:36:33;;;;;;;15.80;5.80;;;7.70;99.90;;;;;;5113390;28;20040;-62
2023/04/20 07:39:00;;;;;;;11.80;5.60;;;7.80;99.90;;;;;;5113594;28;20096;-62
2023/04/20 07:41:26;;;;;;;31.10;6.03;;;7.90;99.90;;;;;;5114894;28;20039;-62
2023/04/20 07:43:53;;;;;;;19.00;6.18;;;7.90;99.90;;;;;;5114935;28;20043;-60
2023/04/20 07:46:20;;;;;;;15.43;5.93;;;8.00;99.90;;;;;;5114537;28;20042;-60
2023/04/20 07:48:46;;;;;;;15.40;5.32;;;8.10;99.90;;;;;;5114276;28;20043;-61
2023/04/20 07:51:13;;;;;;;17.98;5.43;;;8.20;99.90;;;;;;5114593;28;20046;-61
2023/04/20 07:53:40;;;;;;;14.93;5.03;;;8.30;99.90;;;;;;5114974;28;20327;-59
2023/04/20 07:56:07;;;;;;;12.02;4.78;;;8.40;99.90;;;;;;5114366;28;20394;-61
2023/04/20 07:58:37;;;;;;;12.82;5.70;;;8.50;99.90;;;;;;5114586;28;20040;-59
2023/04/20 08:01:04;;;;;;;10.75;5.25;;;8.60;99.90;;;;;;5115211;28;20351;-62
2023/04/20 08:03:32;;;;;;;11.60;4.72;;;8.70;99.90;;;;;;5114425;28;20044;-62
2023/04/20 08:05:59;;;;;;;9.15;4.78;;;8.70;99.90;;;;;;5114081;28;20044;-60
2023/04/20 08:08:26;;;;;;;19.40;5.60;;;8.80;99.90;;;;;;5113167;28;20031;-60
2023/04/20 08:10:53;;;;;;;17.85;5.20;;;8.90;99.90;;;;;;5113914;28;20036;-62
2023/04/20 08:13:19;;;;;;;12.75;4.57;;;9.00;99.90;;;;;;5114571;28;20390;-61
2023/04/20 08:15:46;;;;;;;12.23;4.65;;;9.10;99.90;;;;;;5114455;27;20073;-61
2023/04/20 08:18:13;;;;;;;14.98;5.40;;;9.20;99.90;;;;;;5114692;28;20040;-61
2023/04/20 08:20:40;;;;;;;18.30;5.88;;;9.30;99.90;;;;;;5113903;28;20039;-62
2023/04/20 08:23:07;;;;;;;16.38;5.95;;;9.30;99.90;;;;;;5114061;28;20439;-60
2023/04/20 08:25:33;;;;;;;11.95;5.10;;;9.40;99.90;;;;;;5114395;28;20131;-61
2023/04/20 08:28:00;;;;;;;17.20;5.18;;;9.50;99.90;;;;;;5114307;28;20398;-61
2023/04/20 08:30:28;;;;;;;12.68;5.00;;;9.50;99.90;;;;;;5113172;28;20063;-60
2023/04/20 08:32:55;;;;;;;9.70;4.60;;;9.60;99.90;;;;;;5114427;28;20043;-60
2023/04/20 08:35:22;;;;;;;12.80;4.45;;;9.60;99.90;;;;;;5112806;28;20051;-61
2023/04/20 08:37:48;;;;;;;15.25;5.03;;;9.70;99.90;;;;;;5114057;28;20050;-61
2023/04/20 08:40:15;;;;;;;11.68;4.40;;;9.80;99.90;;;;;;5113897;28;20101;-61
2023/04/20 08:42:42;;;;;;;10.60;4.05;;;9.80;99.90;;;;;;5113846;28;20494;-59
2023/04/20 08:45:09;;;;;;;11.15;3.83;;;9.90;99.90;;;;;;5113834;28;20121;-61
2023/04/20 08:47:35;;;;;;;12.02;3.60;;;9.90;99.90;;;;;;5114518;28;20031;-61
2023/04/20 08:50:02;;;;;;;6.95;3.38;;;10.00;99.90;;;;;;5117179;28;20100;-61
2023/04/20 08:52:29;;;;;;;10.68;3.22;;;10.00;99.90;;;;;;5118406;28;20114;-60
2023/04/20 08:54:56;;;;;;;7.30;2.83;;;10.10;99.90;;;;;;5117516;28;20056;-62
2023/04/20 08:57:23;;;;;;;10.65;2.60;;;10.20;99.40;;;;;;5118100;28;20118;-61
2023/04/20 08:59:50;;;;;;;9.20;2.50;;;10.30;99.00;;;;;;5117960;28;20035;-61
2023/04/20 09:02:17;;;;;;;8.82;2.67;;;10.30;98.50;;;;;;5118039;28;20071;-61
2023/04/20 09:04:47;;;;;;;4.30;2.17;;;10.40;98.30;;;;;;5117769;28;20073;-61
2023/04/20 09:07:15;;;;;;;7.95;2.20;;;10.50;98.00;;;;;;5118234;28;20071;-60
2023/04/20 09:09:41;;;;;;;8.27;2.20;;;10.60;97.70;;;;;;5117577;28;20035;-61
2023/04/20 09:12:09;;;;;;;4.93;2.25;;;10.60;97.40;;;;;;5117611;28;20449;-61
2023/04/20 09:14:35;;;;;;;5.47;2.20;;;10.70;96.30;;;;;;5117679;28;20035;-62
2023/04/20 09:17:04;;;;;;;9.38;2.28;;;10.90;96.30;;;;;;5116570;28;20447;-61
2023/04/20 09:19:30;;;;;;;5.07;1.73;;;11.10;96.50;;;;;;5117289;27;20058;-61
2023/04/20 09:21:57;;;;;;;4.57;1.98;;;11.20;95.70;;;;;;5116200;28;20035;-61
2023/04/20 09:24:24;;;;;;;6.43;1.60;;;11.30;95.40;;;;;;5117540;28;20038;-60
2023/04/20 09:26:51;;;;;;;5.15;1.58;;;11.40;94.40;;;;;;5116300;28;20073;-61
2023/04/20 09:29:17;;;;;;;7.03;1.98;;;11.50;93.90;;;;;;5117354;28;20443;-62
2023/04/20 09:31:44;;;;;;;4.53;1.67;;;11.60;93.90;;;;;;5117447;28;20039;-62
2023/04/20 09:34:11;;;;;;;4.78;1.80;;;11.70;93.40;;;;;;5116263;28;20067;-62
2023/04/20 09:36:38;;;;;;;4.55;1.55;;;11.80;92.90;;;;;;5117380;27;20073;-61
2023/04/20 09:39:04;;;;;;;7.75;1.95;;;11.80;92.50;;;;;;5116205;28;20112;-61
2023/04/20 09:41:32;;;;;;;5.10;1.58;;;11.90;93.40;;;;;;5115944;28;20367;-61
2023/04/20 09:43:59;;;;;;;9.57;1.88;;;11.90;92.40;;;;;;5117421;28;20394;-62
2023/04/20 09:46:25;;;;;;;5.55;1.50;;;12.00;91.70;;;;;;5116111;28;20039;-61
2023/04/20 09:48:52;;;;;;;8.68;2.13;;;12.00;91.60;;;;;;5116020;28;20039;-62
2023/04/20 09:51:19;;;;;;;4.22;1.38;;;11.90;91.00;;;;;;5116883;28;20544;-61
2023/04/20 09:53:46;;;;;;;4.82;1.73;;;11.90;91.40;;;;;;5117001;28;20406;-61
2023/04/20 09:56:12;;;;;;;8.57;2.30;;;11.90;91.40;;;;;;5115184;28;20100;-61
2023/04/20 09:58:39;;;;;;;7.53;1.80;;;12.00;92.20;;;;;;5117272;27;20043;-61
2023/04/20 10:01:06;;;;;;;4.95;1.80;;;12.10;92.30;;;;;;5115658;28;20383;-61
2023/04/20 10:03:33;;;;;;;5.43;1.70;;;12.30;91.30;;;;;;5117084;28;20036;-61
2023/04/20 10:06:00;;;;;;;6.05;1.83;;;12.30;91.10;;;;;;5116777;28;20489;-62
2023/04/20 10:08:27;;;;;;;7.53;1.55;;;12.30;90.70;;;;;;5116536;28;20456;-61
2023/04/20 10:10:54;;;;;;;7.53;1.90;;;12.40;90.70;;;;;;5116511;28;20044;-62
2023/04/20 10:13:22;;;;;;;5.82;1.75;;;12.50;90.60;;;;;;5117091;28;20114;-61
2023/04/20 10:15:48;;;;;;;4.38;1.70;;;12.50;90.80;;;;;;5116584;28;20047;-61
2023/04/20 10:18:16;;;;;;;8.50;2.72;;;12.60;90.70;;;;;;5116634;28;20406;-61
2023/04/20 10:20:43;;;;;;;8.40;1.90;;;12.60;90.40;;;;;;5116552;28;20118;-61
2023/04/20 10:23:10;;;;;;;7.05;1.90;;;12.70;90.60;;;;;;5116480;28;20484;-62
2023/04/20 10:25:37;;;;;;;6.07;1.60;;;12.70;90.00;;;;;;5116042;28;20040;-61
2023/04/20 10:28:05;;;;;;;2.65;1.50;;;12.70;90.40;;;;;;5116400;28;20065;-60
2023/04/20 10:30:31;;;;;;;4.45;1.50;;;12.60;90.20;;;;;;5116066;28;20371;-60
2023/04/20 10:32:58;;;;;;;4.78;1.60;;;12.50;90.50;;;;;;5116380;28;20459;-60
2023/04/20 10:35:25;;;;;;;4.07;1.60;;;12.50;90.30;;;;;;5116300;28;20035;-61
2023/04/20 10:37:52;;;;;;;8.15;2.08;;;12.50;90.00;;;;;;5116257;28;20043;-61
2023/04/20 10:40:19;;;;;;;6.55;1.92;;;12.50;89.80;;;;;;5116098;27;20046;-61
2023/04/20 10:42:46;;;;;;;4.10;1.42;;;12.50;90.00;;;;;;5116524;28;20044;-62
2023/04/20 10:45:13;;;;;;;5.82;1.45;;;12.50;90.10;;;;;;5115722;28;20047;-61
2023/04/20 10:47:39;;;;;;;6.38;1.80;;;12.60;90.10;;;;;;5114825;28;20047;-61
2023/04/20 10:50:06;;;;;;;5.63;1.70;;;12.60;89.30;;;;;;5115627;28;20039;-61
2023/04/20 10:52:34;;;;;;;5.07;1.55;;;12.70;89.80;;;;;;5115935;28;20097;-61
2023/04/20 10:55:02;;;;;;;6.78;1.77;;;12.80;89.70;;;;;;5115689;28;20058;-61
2023/04/20 10:57:29;;;;;;;4.10;1.50;;;12.80;89.10;;;;;;5115746;28;20139;-63
2023/04/20 10:59:56;;;;;;;4.82;1.55;;;12.80;87.60;;;;;;5115887;28;20032;-61
2023/04/20 11:02:23;;;;;;;4.05;1.83;;;12.80;88.40;;;;;;5115630;28;20114;-62
2023/04/20 11:04:50;;;;;;;2.25;1.38;;;12.80;88.10;;;;;;5115549;28;20058;-61
2023/04/20 11:07:19;;;;;;;7.95;1.60;;;12.90;88.30;;;;;;5115788;28;20046;-62
2023/04/20 11:09:46;;;;;;;6.82;1.80;;;12.90;88.10;;;;;;5115799;28;20084;-61
2023/04/20 11:12:13;;;;;;;2.78;1.20;;;13.00;85.80;;;;;;5114873;28;20521;-63
2023/04/20 11:14:40;;;;;;;8.77;1.60;;;13.10;87.00;;;;;;5115530;28;20040;-62
2023/04/20 11:17:07;;;;;;;5.85;1.27;;;13.20;86.40;;;;;;5115535;28;20067;-62
2023/04/20 11:19:34;;;;;;;5.15;1.50;;;13.30;86.70;;;;;;5115504;28;20077;-62
2023/04/20 11:22:00;;;;;;;3.97;1.52;;;13.40;85.90;;;;;;5115726;27;20078;-61
2023/04/20 11:24:27;;;;;;;6.70;1.73;;;13.40;86.50;;;;;;5114408;28;20368;-62
2023/04/20 11:26:54;;;;;;;7.80;1.75;;;13.50;86.20;;;;;;5114960;28;20039;-62
2023/04/20 11:29:21;;;;;;;4.15;1.80;;;13.50;86.10;;;;;;5115248;27;20042;-61
2023/04/20 11:31:48;;;;;;;6.10;1.60;;;13.50;86.30;;;;;;5115297;28;20119;-61
2023/04/20 11:34:15;;;;;;;4.22;1.40;;;13.60;86.10;;;;;;5115205;28;20543;-61
2023/04/20 11:36:41;;;;;;;8.27;4.45;;;13.70;86.00;;;;;;5115161;27;20550;-60
2023/04/20 11:39:08;;;;;;;6.13;1.77;;;13.70;85.60;;;;;;5115268;28;20048;-62
2023/04/20 11:41:37;;;;;;;10.27;2.15;;;13.70;85.30;;;;;;5115517;28;20040;-62
2023/04/20 11:44:04;;;;;;;3.20;1.50;;;13.70;85.40;;;;;;5114800;28;20440;-62
2023/04/20 11:46:31;;;;;;;4.55;1.38;;;13.70;85.80;;;;;;5114631;28;20036;-61
2023/04/20 11:48:59;;;;;;;3.35;1.70;;;13.70;84.10;;;;;;5115188;28;20434;-60
2023/04/20 11:51:27;;;;;;;4.90;1.40;;;13.80;85.00;;;;;;5114822;28;20035;-62
2023/04/20 11:53:53;;;;;;;4.65;1.80;;;13.80;84.80;;;;;;5114777;28;20093;-61
2023/04/20 11:56:20;;;;;;;4.32;1.40;;;13.70;85.20;;;;;;5114605;28;20406;-61
2023/04/20 11:58:47;;;;;;;5.38;1.55;;;13.70;84.60;;;;;;5114414;28;20063;-60
2023/04/20 12:01:15;;;;;;;4.15;1.30;;;13.70;83.70;;;;;;5114760;28;20035;-62
2023/04/20 12:03:42;;;;;;;3.13;1.40;;;13.60;83.10;;;;;;5114557;28;20047;-63
2023/04/20 12:06:13;;;;;;;3.33;1.52;;;13.60;82.90;;;;;;5114892;28;20082;-62
2023/04/20 12:08:41;;;;;;;5.90;1.55;;;13.50;82.60;;;;;;5114560;28;20570;-62
2023/04/20 12:11:08;;;;;;;4.55;1.10;;;13.50;81.50;;;;;;5114270;28;20607;-62
2023/04/20 12:13:34;;;;;;;6.57;1.50;;;13.60;81.10;;;;;;5114491;28;20059;-62
2023/04/20 12:16:01;;;;;;;4.35;1.30;;;13.70;82.70;;;;;;5113404;28;20048;-63
2023/04/20 12:18:28;;;;;;;7.25;1.77;;;13.80;81.60;;;;;;5114462;28;20104;-62
2023/04/20 12:20:55;;;;;;;4.60;1.58;;;13.90;80.20;;;;;;5114079;28;20066;-62
2023/04/20 12:23:22;;;;;;;5.55;1.35;;;13.90;80.80;;;;;;5114726;28;20475;-63
2023/04/20 12:25:48;;;;;;;6.78;1.20;;;13.90;79.80;;;;;;5113993;28;20040;-60
2023/04/20 12:28:15;;;;;;;3.80;1.50;;;13.80;79.60;;;;;;5114390;28;20092;-62
2023/04/20 12:30:42;;;;;;;3.70;1.13;;;13.80;78.50;;;;;;5114035;28;20047;-62
2023/04/20 12:33:09;;;;;;;4.20;1.25;;;13.90;79.80;;;;;;5114418;28;20127;-62
2023/04/20 12:35:36;;;;;;;4.10;1.30;;;13.90;79.20;;;;;;5114685;28;20048;-62
2023/04/20 12:38:02;;;;;;;6.53;1.50;;;14.00;77.60;;;;;;5114272;28;20063;-61
2023/04/20 12:40:29;;;;;;;5.35;1.25;;;14.00;76.80;;;;;;5113153;28;20035;-63
2023/04/20 12:42:56;;;;;;;6.57;1.50;;;14.00;77.60;;;;;;5114151;28;20039;-62
2023/04/20 12:45:23;;;;;;;5.57;1.45;;;14.00;77.10;;;;;;5114006;28;20447;-63
2023/04/20 12:47:49;;;;;;;4.75;1.30;;;14.00;77.00;;;;;;5113751;28;20036;-62